createdAt,value
2019-02-22T00:00:03.854Z,1027.27
2019-02-22T00:01:03.819Z,1027.32
2019-02-22T00:02:03.823Z,1027.31
2019-02-22T00:03:03.805Z,1027.31
2019-02-22T00:04:03.779Z,1027.36
2019-02-22T00:05:03.795Z,1027.40
2019-02-22T00:06:12.429Z,1027.32
2019-02-22T00:07:03.790Z,1027.35
2019-02-22T00:08:03.752Z,1027.32
2019-02-22T00:09:03.764Z,1027.34
2019-02-22T00:10:03.712Z,1027.33
2019-02-22T00:11:03.752Z,1027.34
2019-02-22T00:12:03.722Z,1027.35
2019-02-22T00:13:03.679Z,1027.33
2019-02-22T00:14:03.693Z,1027.35
2019-02-22T00:15:03.669Z,1027.36
2019-02-22T00:16:03.652Z,1027.49
2019-02-22T00:17:03.682Z,1027.50
2019-02-22T00:18:03.637Z,1027.51
2019-02-22T00:19:03.690Z,1027.50
2019-02-22T00:20:03.626Z,1027.53
2019-02-22T00:21:03.614Z,1027.52
2019-02-22T00:22:03.609Z,1027.55
2019-02-22T00:23:11.140Z,1027.51
2019-02-22T00:24:03.593Z,1027.52
2019-02-22T00:25:03.564Z,1027.53
2019-02-22T00:26:03.563Z,1027.54
2019-02-22T00:27:03.581Z,1027.52
2019-02-22T00:28:03.527Z,1027.51
2019-02-22T00:29:03.531Z,1027.48
2019-02-22T00:30:03.507Z,1027.50
2019-02-22T00:31:11.070Z,1027.51
2019-02-22T00:32:03.506Z,1027.51
2019-02-22T00:33:11.032Z,1027.62
2019-02-22T00:34:03.519Z,1027.56
2019-02-22T00:35:03.523Z,1027.56
2019-02-22T00:36:03.478Z,1027.58
2019-02-22T00:37:03.463Z,1027.62
2019-02-22T00:38:03.438Z,1027.63
2019-02-22T00:39:03.425Z,1027.61
2019-02-22T00:40:03.394Z,1027.62
2019-02-22T00:41:03.391Z,1027.68
2019-02-22T00:42:03.390Z,1027.63
2019-02-22T00:43:03.400Z,1027.61
2019-02-22T00:44:03.357Z,1027.66
2019-02-22T00:45:03.345Z,1027.71
2019-02-22T00:46:03.347Z,1027.68
2019-02-22T00:47:03.359Z,1027.72
2019-02-22T00:48:03.301Z,1027.73
2019-02-22T00:49:03.342Z,1027.74
2019-02-22T00:50:03.288Z,1027.73
2019-02-22T00:51:03.293Z,1027.68
2019-02-22T00:52:03.262Z,1027.70
2019-02-22T00:53:03.848Z,1027.68
2019-02-22T00:54:03.266Z,1027.65
2019-02-22T00:55:03.227Z,1027.66
2019-02-22T00:56:03.235Z,1027.68
2019-02-22T00:57:10.777Z,1027.72
2019-02-22T00:58:03.238Z,1027.75
2019-02-22T00:59:03.195Z,1027.71
2019-02-22T01:00:03.197Z,1027.74
2019-02-22T01:01:03.178Z,1027.77
2019-02-22T01:02:03.198Z,1027.79
2019-02-22T01:03:10.706Z,1027.85
2019-02-22T01:04:03.169Z,1027.78
2019-02-22T01:05:10.692Z,1027.84
2019-02-22T01:06:03.176Z,1027.85
2019-02-22T01:07:10.663Z,1027.83
2019-02-22T01:08:03.139Z,1027.78
2019-02-22T01:09:03.082Z,1027.79
2019-02-22T01:10:03.079Z,1027.78
2019-02-22T01:11:03.062Z,1027.79
2019-02-22T01:12:03.045Z,1027.76
2019-02-22T01:13:03.035Z,1027.79
2019-02-22T01:14:03.054Z,1027.75
2019-02-22T01:15:03.040Z,1027.77
2019-02-22T01:16:03.003Z,1027.77
2019-02-22T01:17:03.015Z,1027.73
2019-02-22T01:18:03.009Z,1027.73
2019-02-22T01:19:02.992Z,1027.70
2019-02-22T01:20:10.506Z,1027.74
2019-02-22T01:21:02.976Z,1027.72
2019-02-22T01:22:10.503Z,1027.71
2019-02-22T01:23:02.935Z,1027.75
2019-02-22T01:24:10.484Z,1027.70
2019-02-22T01:25:02.957Z,1027.72
2019-02-22T01:26:02.910Z,1027.74
2019-02-22T01:27:02.921Z,1027.73
2019-02-22T01:28:02.877Z,1027.76
2019-02-22T01:29:02.890Z,1027.77
2019-02-22T01:30:02.857Z,1027.80
2019-02-22T01:31:02.869Z,1027.83
2019-02-22T01:32:02.853Z,1027.85
2019-02-22T01:33:02.829Z,1027.85
2019-02-22T01:34:02.831Z,1027.87
2019-02-22T01:35:02.800Z,1027.84
2019-02-22T01:36:02.812Z,1027.88
2019-02-22T01:37:02.780Z,1027.87
2019-02-22T01:38:02.784Z,1027.92
2019-02-22T01:39:02.803Z,1027.91
2019-02-22T01:40:02.801Z,1027.91
2019-02-22T01:41:02.743Z,1027.94
2019-02-22T01:42:02.816Z,1027.91
2019-02-22T01:43:02.722Z,1027.95
2019-02-22T01:44:02.723Z,1027.93
2019-02-22T01:45:02.723Z,1027.95
2019-02-22T01:46:02.683Z,1027.91
2019-02-22T01:47:02.689Z,1027.90
2019-02-22T01:48:02.658Z,1027.92
2019-02-22T01:49:02.654Z,1027.90
2019-02-22T01:50:02.665Z,1027.89
2019-02-22T01:51:02.637Z,1027.91
2019-02-22T01:52:02.633Z,1027.83
2019-02-22T01:53:02.627Z,1027.93
2019-02-22T01:54:02.597Z,1027.88
2019-02-22T01:55:02.627Z,1027.87
2019-02-22T01:56:02.618Z,1027.87
2019-02-22T01:57:02.567Z,1027.89
2019-02-22T01:58:02.550Z,1027.90
2019-02-22T01:59:02.610Z,1028.00
2019-02-22T02:00:02.573Z,1027.98
2019-02-22T02:01:02.542Z,1027.92
2019-02-22T02:02:02.533Z,1027.94
2019-02-22T02:03:02.528Z,1027.97
2019-02-22T02:04:02.513Z,1027.98
2019-02-22T02:05:02.512Z,1027.95
2019-02-22T02:06:02.465Z,1027.93
2019-02-22T02:07:02.453Z,1027.87
2019-02-22T02:08:02.497Z,1027.97
2019-02-22T02:09:02.490Z,1028.00
2019-02-22T02:10:02.419Z,1027.96
2019-02-22T02:11:02.427Z,1028.03
2019-02-22T02:12:02.438Z,1027.99
2019-02-22T02:13:02.431Z,1027.97
2019-02-22T02:14:02.376Z,1027.98
2019-02-22T02:15:02.389Z,1027.93
2019-02-22T02:16:02.372Z,1028.03
2019-02-22T02:17:02.360Z,1028.07
2019-02-22T02:18:02.367Z,1028.01
2019-02-22T02:19:02.329Z,1028.06
2019-02-22T02:20:02.334Z,1028.09
2019-02-22T02:21:02.330Z,1028.13
2019-02-22T02:22:02.322Z,1028.15
2019-02-22T02:23:02.279Z,1028.11
2019-02-22T02:24:02.283Z,1028.13
2019-02-22T02:25:02.267Z,1028.18
2019-02-22T02:26:02.270Z,1028.15
2019-02-22T02:27:02.250Z,1028.18
2019-02-22T02:28:02.263Z,1028.23
2019-02-22T02:29:02.216Z,1028.21
2019-02-22T02:30:02.229Z,1028.13
2019-02-22T02:31:02.247Z,1028.07
2019-02-22T02:32:02.205Z,1028.16
2019-02-22T02:33:02.180Z,1028.07
2019-02-22T02:34:02.175Z,1028.08
2019-02-22T02:35:02.155Z,1028.13
2019-02-22T02:36:02.186Z,1028.07
2019-02-22T02:37:02.141Z,1028.08
2019-02-22T02:38:02.120Z,1028.16
2019-02-22T02:39:02.109Z,1028.18
2019-02-22T02:40:02.104Z,1028.14
2019-02-22T02:41:09.918Z,1028.11
2019-02-22T02:42:03.124Z,1028.16
2019-02-22T02:43:02.074Z,1028.19
2019-02-22T02:44:02.053Z,1028.20
2019-02-22T02:45:02.056Z,1028.19
2019-02-22T02:46:02.057Z,1028.25
2019-02-22T02:47:02.060Z,1028.26
2019-02-22T02:48:02.009Z,1028.26
2019-02-22T02:49:02.020Z,1028.28
2019-02-22T02:50:02.009Z,1028.30
2019-02-22T02:51:01.988Z,1028.28
2019-02-22T02:52:02.037Z,1028.29
2019-02-22T02:53:01.990Z,1028.27
2019-02-22T02:54:01.981Z,1028.27
2019-02-22T02:55:01.967Z,1028.29
2019-02-22T02:56:01.937Z,1028.27
2019-02-22T02:57:01.968Z,1028.30
2019-02-22T02:58:01.928Z,1028.23
2019-02-22T02:59:01.918Z,1028.26
2019-02-22T03:00:01.894Z,1028.20
2019-02-22T03:01:01.928Z,1028.23
2019-02-22T03:02:01.859Z,1028.29
2019-02-22T03:03:01.879Z,1028.26
2019-02-22T03:04:01.861Z,1028.26
2019-02-22T03:05:01.847Z,1028.22
2019-02-22T03:06:01.862Z,1028.22
2019-02-22T03:07:01.828Z,1028.17
2019-02-22T03:08:01.820Z,1028.19
2019-02-22T03:09:01.811Z,1028.18
2019-02-22T03:10:01.787Z,1028.18
2019-02-22T03:11:01.792Z,1028.20
2019-02-22T03:12:01.760Z,1028.19
2019-02-22T03:13:01.797Z,1028.24
2019-02-22T03:14:01.767Z,1028.20
2019-02-22T03:15:01.741Z,1028.21
2019-02-22T03:16:01.745Z,1028.18
2019-02-22T03:17:01.741Z,1028.24
2019-02-22T03:18:01.702Z,1028.23
2019-02-22T03:19:01.723Z,1028.27
2019-02-22T03:20:01.669Z,1028.34
2019-02-22T03:21:01.685Z,1028.32
2019-02-22T03:22:01.684Z,1028.28
2019-02-22T03:23:01.670Z,1028.34
2019-02-22T03:24:01.625Z,1028.35
2019-02-22T03:25:01.627Z,1028.32
2019-02-22T03:26:01.610Z,1028.33
2019-02-22T03:27:01.629Z,1028.30
2019-02-22T03:28:01.655Z,1028.30
2019-02-22T03:29:01.700Z,1028.33
2019-02-22T03:30:01.561Z,1028.28
2019-02-22T03:31:01.559Z,1028.31
2019-02-22T03:32:01.538Z,1028.34
2019-02-22T03:33:01.538Z,1028.36
2019-02-22T03:34:01.550Z,1028.36
2019-02-22T03:35:01.507Z,1028.39
2019-02-22T03:36:01.540Z,1028.39
2019-02-22T03:37:01.513Z,1028.34
2019-02-22T03:38:01.520Z,1028.38
2019-02-22T03:39:01.483Z,1028.39
2019-02-22T03:40:01.476Z,1028.45
2019-02-22T03:41:01.449Z,1028.48
2019-02-22T03:42:01.431Z,1028.48
2019-02-22T03:43:01.420Z,1028.51
2019-02-22T03:44:01.474Z,1028.52
2019-02-22T03:45:01.413Z,1028.51
2019-02-22T03:46:01.437Z,1028.54
2019-02-22T03:47:01.374Z,1028.55
2019-02-22T03:48:01.377Z,1028.54
2019-02-22T03:49:01.383Z,1028.56
2019-02-22T03:50:01.350Z,1028.56
2019-02-22T03:51:01.359Z,1028.61
2019-02-22T03:52:01.361Z,1028.56
2019-02-22T03:53:01.368Z,1028.55
2019-02-22T03:54:01.352Z,1028.60
2019-02-22T03:55:01.338Z,1028.59
2019-02-22T03:56:01.324Z,1028.60
2019-02-22T03:57:01.304Z,1028.62
2019-02-22T03:58:01.285Z,1028.63
2019-02-22T03:59:01.250Z,1028.64
2019-02-22T04:00:01.266Z,1028.64
2019-02-22T04:01:01.272Z,1028.67
2019-02-22T04:02:01.221Z,1028.66
2019-02-22T04:03:01.246Z,1028.65
2019-02-22T04:04:01.196Z,1028.67
2019-02-22T04:05:01.218Z,1028.61
2019-02-22T04:06:01.199Z,1028.60
2019-02-22T04:07:01.190Z,1028.66
2019-02-22T04:08:01.194Z,1028.65
2019-02-22T04:09:01.154Z,1028.68
2019-02-22T04:10:01.286Z,1028.64
2019-02-22T04:11:01.123Z,1028.68
2019-02-22T04:12:01.118Z,1028.69
2019-02-22T04:13:01.099Z,1028.71
2019-02-22T04:14:01.086Z,1028.69
2019-02-22T04:15:01.110Z,1028.72
2019-02-22T04:16:01.077Z,1028.75
2019-02-22T04:17:01.054Z,1028.75
2019-02-22T04:18:01.073Z,1028.74
2019-02-22T04:19:01.114Z,1028.75
2019-02-22T04:20:01.044Z,1028.75
2019-02-22T04:21:01.023Z,1028.76
2019-02-22T04:22:01.040Z,1028.76
2019-02-22T04:23:01.001Z,1028.74
2019-02-22T04:24:00.993Z,1028.74
2019-02-22T04:25:01.017Z,1028.78
2019-02-22T04:26:00.974Z,1028.78
2019-02-22T04:27:00.969Z,1028.84
2019-02-22T04:28:00.990Z,1028.80
2019-02-22T04:29:00.939Z,1028.80
2019-02-22T04:30:00.949Z,1028.82
2019-02-22T04:31:00.906Z,1028.86
2019-02-22T04:32:00.949Z,1028.91
2019-02-22T04:33:00.905Z,1028.93
2019-02-22T04:34:00.906Z,1028.93
2019-02-22T04:35:00.917Z,1029.00
2019-02-22T04:36:00.867Z,1029.00
2019-02-22T04:37:00.873Z,1028.92
2019-02-22T04:38:00.845Z,1028.89
2019-02-22T04:39:00.817Z,1028.90
2019-02-22T04:40:00.837Z,1028.90
2019-02-22T04:41:00.844Z,1028.95
2019-02-22T04:42:00.795Z,1028.95
2019-02-22T04:43:00.784Z,1029.00
2019-02-22T04:44:00.795Z,1028.96
2019-02-22T04:45:00.784Z,1028.96
2019-02-22T04:46:00.755Z,1028.98
2019-02-22T04:47:00.745Z,1029.03
2019-02-22T04:48:00.751Z,1029.01
2019-02-22T04:49:00.708Z,1028.94
2019-02-22T04:50:00.741Z,1028.97
2019-02-22T04:51:00.703Z,1028.96
2019-02-22T04:52:00.686Z,1029.00
2019-02-22T04:53:00.694Z,1028.98
2019-02-22T04:54:00.656Z,1028.99
2019-02-22T04:55:00.669Z,1028.96
2019-02-22T04:56:00.698Z,1028.98
2019-02-22T04:57:00.633Z,1029.05
2019-02-22T04:58:00.631Z,1029.03
2019-02-22T04:59:00.628Z,1029.06
2019-02-22T05:00:00.606Z,1029.08
2019-02-22T05:01:00.621Z,1029.07
2019-02-22T05:02:00.569Z,1029.09
2019-02-22T05:03:00.573Z,1029.09
2019-02-22T05:04:00.561Z,1029.12
2019-02-22T05:05:00.562Z,1029.13
2019-02-22T05:06:01.074Z,1029.13
2019-02-22T05:07:00.531Z,1029.19
2019-02-22T05:08:00.556Z,1029.17
2019-02-22T05:09:00.495Z,1029.17
2019-02-22T05:10:00.532Z,1029.22
2019-02-22T05:11:01.161Z,1029.20
2019-02-22T05:12:10.334Z,1029.21
2019-02-22T05:13:01.469Z,1029.20
2019-02-22T05:14:00.449Z,1029.22
2019-02-22T05:15:11.999Z,1029.17
2019-02-22T05:16:01.482Z,1029.19
2019-02-22T05:17:00.434Z,1029.18
2019-02-22T05:18:00.417Z,1029.17
2019-02-22T05:19:00.388Z,1029.15
2019-02-22T05:20:00.375Z,1029.19
2019-02-22T05:21:00.366Z,1029.19
2019-02-22T05:22:00.527Z,1029.18
2019-02-22T05:23:03.714Z,1029.17
2019-02-22T05:24:01.334Z,1029.19
2019-02-22T05:25:00.552Z,1029.18
2019-02-22T05:26:00.311Z,1029.24
2019-02-22T05:27:00.341Z,1029.22
2019-02-22T05:28:00.306Z,1029.26
2019-02-22T05:29:00.292Z,1029.28
2019-02-22T05:30:00.408Z,1029.32
2019-02-22T05:31:00.303Z,1029.27
2019-02-22T05:32:00.283Z,1029.33
2019-02-22T05:33:00.234Z,1029.31
2019-02-22T05:34:00.247Z,1029.34
2019-02-22T05:35:00.370Z,1029.35
2019-02-22T05:36:00.257Z,1029.35
2019-02-22T05:37:00.208Z,1029.38
2019-02-22T05:38:00.182Z,1029.42
2019-02-22T05:39:00.211Z,1029.38
2019-02-22T05:40:00.504Z,1029.41
2019-02-22T05:41:00.203Z,1029.39
2019-02-22T05:42:00.225Z,1029.44
2019-02-22T05:43:00.143Z,1029.42
2019-02-22T05:44:00.117Z,1029.48
2019-02-22T05:45:00.406Z,1029.47
2019-02-22T05:46:00.096Z,1029.52
2019-02-22T05:47:00.770Z,1029.50
2019-02-22T05:48:00.074Z,1029.48
2019-02-22T05:49:00.095Z,1029.55
2019-02-22T05:50:00.178Z,1029.52
2019-02-22T05:51:00.075Z,1029.53
2019-02-22T05:52:00.075Z,1029.57
2019-02-22T05:53:00.025Z,1029.58
2019-02-22T05:54:00.012Z,1029.62
2019-02-22T05:55:00.001Z,1029.60
2019-02-22T05:56:00.104Z,1029.63
2019-02-22T05:57:00.181Z,1029.63
2019-02-22T05:58:00.081Z,1029.63
2019-02-22T05:59:00.096Z,1029.66
2019-02-22T06:00:00.321Z,1029.67
2019-02-22T06:01:00.024Z,1029.63
2019-02-22T06:02:00.077Z,1029.67
2019-02-22T06:03:00.025Z,1029.64
2019-02-22T06:04:00.003Z,1029.68
2019-02-22T06:04:59.999Z,1029.70
2019-02-22T06:06:00.015Z,1029.73
2019-02-22T06:07:00.072Z,1029.70
2019-02-22T06:07:59.998Z,1029.76
2019-02-22T06:09:00.012Z,1029.76
2019-02-22T06:09:59.884Z,1029.75
2019-02-22T06:10:59.868Z,1029.77
2019-02-22T06:11:59.892Z,1029.75
2019-02-22T06:13:00.046Z,1029.71
2019-02-22T06:13:59.852Z,1029.80
2019-02-22T06:14:59.838Z,1029.80
2019-02-22T06:15:59.808Z,1029.82
2019-02-22T06:16:59.894Z,1029.79
2019-02-22T06:17:59.818Z,1029.79
2019-02-22T06:18:59.818Z,1029.74
2019-02-22T06:19:59.812Z,1029.78
2019-02-22T06:20:59.869Z,1029.84
2019-02-22T06:21:59.863Z,1029.84
2019-02-22T06:22:59.759Z,1029.82
2019-02-22T06:24:02.540Z,1029.91
2019-02-22T06:24:59.702Z,1029.94
2019-02-22T06:25:59.723Z,1029.95
2019-02-22T06:26:59.767Z,1029.90
2019-02-22T06:27:59.816Z,1030.00
2019-02-22T06:29:00.012Z,1029.98
2019-02-22T06:29:59.740Z,1030.00
2019-02-22T06:30:59.742Z,1030.06
2019-02-22T06:31:59.737Z,1030.02
2019-02-22T06:32:59.721Z,1030.02
2019-02-22T06:33:59.664Z,1030.06
2019-02-22T06:34:59.678Z,1030.10
2019-02-22T06:35:59.646Z,1030.06
2019-02-22T06:37:02.106Z,1030.08
2019-02-22T06:37:59.655Z,1030.10
2019-02-22T06:38:59.867Z,1030.09
2019-02-22T06:39:59.612Z,1030.12
2019-02-22T06:40:59.601Z,1030.06
2019-02-22T06:41:59.707Z,1030.10
2019-02-22T06:42:59.641Z,1030.11
2019-02-22T06:43:59.587Z,1030.17
2019-02-22T06:44:59.633Z,1030.14
2019-02-22T06:45:59.551Z,1030.14
2019-02-22T06:46:59.539Z,1030.16
2019-02-22T06:47:59.479Z,1030.16
2019-02-22T06:48:59.501Z,1030.16
2019-02-22T06:49:59.528Z,1030.18
2019-02-22T06:50:59.447Z,1030.15
2019-02-22T06:51:59.475Z,1030.15
2019-02-22T06:52:59.436Z,1030.18
2019-02-22T06:53:59.441Z,1030.19
2019-02-22T06:54:59.512Z,1030.21
2019-02-22T06:55:59.459Z,1030.23
2019-02-22T06:56:59.568Z,1030.26
2019-02-22T06:57:59.388Z,1030.22
2019-02-22T06:58:59.362Z,1030.25
2019-02-22T06:59:59.391Z,1030.24
2019-02-22T07:00:59.317Z,1030.24
2019-02-22T07:01:59.386Z,1030.28
2019-02-22T07:02:59.301Z,1030.30
2019-02-22T07:03:59.278Z,1030.32
2019-02-22T07:05:00.317Z,1030.27
2019-02-22T07:05:59.351Z,1030.32
2019-02-22T07:06:59.370Z,1030.32
2019-02-22T07:07:59.296Z,1030.34
2019-02-22T07:08:59.249Z,1030.33
2019-02-22T07:09:59.328Z,1030.34
2019-02-22T07:10:59.318Z,1030.34
2019-02-22T07:11:59.234Z,1030.37
2019-02-22T07:12:59.270Z,1030.32
2019-02-22T07:13:59.273Z,1030.34
2019-02-22T07:14:59.172Z,1030.33
2019-02-22T07:15:59.299Z,1030.34
2019-02-22T07:16:59.244Z,1030.33
2019-02-22T07:17:59.253Z,1030.35
2019-02-22T07:18:59.217Z,1030.34
2019-02-22T07:19:59.139Z,1030.36
2019-02-22T07:20:59.245Z,1030.33
2019-02-22T07:21:59.117Z,1030.33
2019-02-22T07:22:59.117Z,1030.39
2019-02-22T07:23:59.191Z,1030.40
2019-02-22T07:24:59.107Z,1030.37
2019-02-22T07:25:59.075Z,1030.39
2019-02-22T07:26:59.120Z,1030.41
2019-02-22T07:27:59.141Z,1030.41
2019-02-22T07:28:59.062Z,1030.44
2019-02-22T07:29:59.089Z,1030.47
2019-02-22T07:30:59.065Z,1030.54
2019-02-22T07:32:05.917Z,1030.51
2019-02-22T07:32:59.987Z,1030.52
2019-02-22T07:33:59.121Z,1030.58
2019-02-22T07:34:59.115Z,1030.54
2019-02-22T07:35:59.044Z,1030.59
2019-02-22T07:36:59.407Z,1030.60
2019-02-22T07:37:58.968Z,1030.60
2019-02-22T07:38:58.948Z,1030.56
2019-02-22T07:39:59.008Z,1030.56
2019-02-22T07:40:59.070Z,1030.62
2019-02-22T07:41:58.999Z,1030.62
2019-02-22T07:43:07.752Z,1030.66
2019-02-22T07:44:00.186Z,1030.63
2019-02-22T07:44:58.996Z,1030.66
2019-02-22T07:45:59.149Z,1030.67
2019-02-22T07:46:58.894Z,1030.69
2019-02-22T07:47:59.073Z,1030.72
2019-02-22T07:48:58.964Z,1030.75
2019-02-22T07:49:59.022Z,1030.73
2019-02-22T07:50:58.977Z,1030.72
2019-02-22T07:51:58.779Z,1030.75
2019-02-22T07:52:58.891Z,1030.76
2019-02-22T07:53:59.062Z,1030.80
2019-02-22T07:54:58.825Z,1030.81
2019-02-22T07:55:58.765Z,1030.81
2019-02-22T07:56:59.033Z,1030.84
2019-02-22T07:57:58.966Z,1030.79
2019-02-22T07:58:58.845Z,1030.85
2019-02-22T07:59:58.933Z,1030.89
2019-02-22T08:00:58.846Z,1030.86
2019-02-22T08:01:58.773Z,1030.94
2019-02-22T08:02:58.811Z,1030.89
2019-02-22T08:03:58.741Z,1030.94
2019-02-22T08:04:58.705Z,1030.95
2019-02-22T08:05:58.736Z,1031.01
2019-02-22T08:06:58.739Z,1031.05
2019-02-22T08:07:58.740Z,1031.06
2019-02-22T08:08:58.660Z,1031.10
2019-02-22T08:09:58.606Z,1031.14
2019-02-22T08:10:58.568Z,1031.21
2019-02-22T08:11:58.572Z,1031.15
2019-02-22T08:12:58.711Z,1031.20
2019-02-22T08:13:58.586Z,1031.23
2019-02-22T08:14:58.776Z,1031.23
2019-02-22T08:15:58.596Z,1031.22
2019-02-22T08:16:58.661Z,1031.24
2019-02-22T08:17:58.543Z,1031.29
2019-02-22T08:19:01.758Z,1031.27
2019-02-22T08:19:58.485Z,1031.30
2019-02-22T08:20:58.537Z,1031.28
2019-02-22T08:21:58.443Z,1031.34
2019-02-22T08:22:58.558Z,1031.33
2019-02-22T08:23:58.446Z,1031.37
2019-02-22T08:24:58.442Z,1031.42
2019-02-22T08:25:58.454Z,1031.36
2019-02-22T08:26:58.526Z,1031.37
2019-02-22T08:27:58.498Z,1031.39
2019-02-22T08:28:58.522Z,1031.42
2019-02-22T08:29:58.514Z,1031.41
2019-02-22T08:30:58.462Z,1031.47
2019-02-22T08:31:58.467Z,1031.43
2019-02-22T08:32:58.504Z,1031.50
2019-02-22T08:33:58.386Z,1031.51
2019-02-22T08:34:58.532Z,1031.56
2019-02-22T08:35:58.484Z,1031.56
2019-02-22T08:36:58.349Z,1031.56
2019-02-22T08:37:58.345Z,1031.61
2019-02-22T08:38:58.380Z,1031.57
2019-02-22T08:39:59.031Z,1031.58
2019-02-22T08:40:58.298Z,1031.59
2019-02-22T08:41:58.332Z,1031.59
2019-02-22T08:42:58.241Z,1031.60
2019-02-22T08:43:58.340Z,1031.60
2019-02-22T08:44:58.276Z,1031.67
2019-02-22T08:45:58.265Z,1031.66
2019-02-22T08:46:58.202Z,1031.66
2019-02-22T08:47:58.392Z,1031.70
2019-02-22T08:48:58.212Z,1031.72
2019-02-22T08:49:58.210Z,1031.74
2019-02-22T08:50:58.164Z,1031.76
2019-02-22T08:51:58.133Z,1031.81
2019-02-22T08:52:58.229Z,1031.77
2019-02-22T08:53:58.191Z,1031.78
2019-02-22T08:54:58.109Z,1031.81
2019-02-22T08:55:59.734Z,1031.83
2019-02-22T08:56:58.148Z,1031.84
2019-02-22T08:57:58.141Z,1031.87
2019-02-22T08:58:58.241Z,1031.81
2019-02-22T08:59:58.160Z,1031.87
2019-02-22T09:00:58.266Z,1031.88
2019-02-22T09:01:58.154Z,1031.89
2019-02-22T09:02:58.110Z,1031.89
2019-02-22T09:03:58.035Z,1031.94
2019-02-22T09:04:58.119Z,1031.89
2019-02-22T09:05:59.801Z,1031.96
2019-02-22T09:06:58.023Z,1031.98
2019-02-22T09:07:58.024Z,1031.96
2019-02-22T09:08:58.015Z,1031.96
2019-02-22T09:09:57.932Z,1032.01
2019-02-22T09:11:00.827Z,1032.05
2019-02-22T09:11:57.985Z,1031.99
2019-02-22T09:12:58.043Z,1032.02
2019-02-22T09:13:58.042Z,1032.04
2019-02-22T09:14:58.023Z,1032.03
2019-02-22T09:15:58.077Z,1032.08
2019-02-22T09:16:57.857Z,1032.03
2019-02-22T09:17:57.915Z,1032.08
2019-02-22T09:18:57.921Z,1032.05
2019-02-22T09:19:58.003Z,1032.05
2019-02-22T09:20:57.912Z,1032.07
2019-02-22T09:21:57.853Z,1032.08
2019-02-22T09:22:57.830Z,1032.11
2019-02-22T09:23:57.786Z,1032.09
2019-02-22T09:24:57.812Z,1032.13
2019-02-22T09:25:57.935Z,1032.14
2019-02-22T09:26:59.678Z,1032.21
2019-02-22T09:27:57.853Z,1032.21
2019-02-22T09:28:57.744Z,1032.20
2019-02-22T09:29:59.089Z,1032.20
2019-02-22T09:30:57.704Z,1032.18
2019-02-22T09:31:57.801Z,1032.22
2019-02-22T09:32:57.721Z,1032.24
2019-02-22T09:33:57.757Z,1032.26
2019-02-22T09:34:57.843Z,1032.31
2019-02-22T09:35:57.730Z,1032.29
2019-02-22T09:36:57.838Z,1032.26
2019-02-22T09:37:57.734Z,1032.28
2019-02-22T09:38:57.864Z,1032.33
2019-02-22T09:39:57.638Z,1032.32
2019-02-22T09:40:57.628Z,1032.36
2019-02-22T09:41:57.700Z,1032.37
2019-02-22T09:42:57.746Z,1032.35
2019-02-22T09:43:57.756Z,1032.35
2019-02-22T09:44:57.671Z,1032.34
2019-02-22T09:45:57.623Z,1032.32
2019-02-22T09:46:57.720Z,1032.29
2019-02-22T09:47:57.560Z,1032.31
2019-02-22T09:48:57.537Z,1032.30
2019-02-22T09:49:57.576Z,1032.32
2019-02-22T09:50:57.570Z,1032.34
2019-02-22T09:51:57.492Z,1032.28
2019-02-22T09:53:00.417Z,1032.32
2019-02-22T09:53:57.559Z,1032.31
2019-02-22T09:54:57.824Z,1032.34
2019-02-22T09:55:57.574Z,1032.38
2019-02-22T09:56:57.546Z,1032.38
2019-02-22T09:57:57.512Z,1032.36
2019-02-22T09:58:57.521Z,1032.35
2019-02-22T09:59:57.540Z,1032.33
2019-02-22T10:00:57.403Z,1032.30
2019-02-22T10:01:57.461Z,1032.33
2019-02-22T10:02:57.423Z,1032.37
2019-02-22T10:03:57.381Z,1032.34
2019-02-22T10:04:57.457Z,1032.40
2019-02-22T10:05:57.370Z,1032.34
2019-02-22T10:06:57.508Z,1032.40
2019-02-22T10:07:57.496Z,1032.38
2019-02-22T10:08:57.389Z,1032.44
2019-02-22T10:09:57.377Z,1032.48
2019-02-22T10:10:57.356Z,1032.42
2019-02-22T10:11:57.337Z,1032.42
2019-02-22T10:12:57.443Z,1032.43
2019-02-22T10:14:06.357Z,1032.39
2019-02-22T10:14:58.248Z,1032.40
2019-02-22T10:15:57.335Z,1032.41
2019-02-22T10:16:57.241Z,1032.43
2019-02-22T10:17:57.330Z,1032.39
2019-02-22T10:18:57.254Z,1032.42
2019-02-22T10:19:57.286Z,1032.37
2019-02-22T10:20:57.247Z,1032.46
2019-02-22T10:21:57.750Z,1032.35
2019-02-22T10:22:57.211Z,1032.40
2019-02-22T10:23:57.224Z,1032.43
2019-02-22T10:24:57.184Z,1032.42
2019-02-22T10:25:57.231Z,1032.39
2019-02-22T10:26:57.204Z,1032.39
2019-02-22T10:27:57.272Z,1032.44
2019-02-22T10:28:57.230Z,1032.39
2019-02-22T10:29:57.097Z,1032.33
2019-02-22T10:30:57.187Z,1032.32
2019-02-22T10:31:57.103Z,1032.39
2019-02-22T10:32:57.050Z,1032.31
2019-02-22T10:33:57.057Z,1032.39
2019-02-22T10:34:57.054Z,1032.40
2019-02-22T10:35:57.120Z,1032.38
2019-02-22T10:36:57.209Z,1032.40
2019-02-22T10:37:57.024Z,1032.42
2019-02-22T10:38:57.232Z,1032.41
2019-02-22T10:39:56.969Z,1032.48
2019-02-22T10:40:56.956Z,1032.45
2019-02-22T10:41:56.952Z,1032.42
2019-02-22T10:42:56.925Z,1032.42
2019-02-22T10:43:57.062Z,1032.49
2019-02-22T10:44:56.994Z,1032.44
2019-02-22T10:45:56.981Z,1032.52
2019-02-22T10:46:56.968Z,1032.55
2019-02-22T10:47:56.951Z,1032.49
2019-02-22T10:48:57.007Z,1032.48
2019-02-22T10:49:56.950Z,1032.50
2019-02-22T10:50:59.295Z,1032.42
2019-02-22T10:51:56.899Z,1032.50
2019-02-22T10:53:02.229Z,1032.51
2019-02-22T10:53:57.948Z,1032.54
2019-02-22T10:54:57.833Z,1032.56
2019-02-22T10:55:56.908Z,1032.55
2019-02-22T10:56:56.931Z,1032.56
2019-02-22T10:57:56.880Z,1032.58
2019-02-22T10:58:57.089Z,1032.52
2019-02-22T10:59:56.934Z,1032.57
2019-02-22T11:00:56.862Z,1032.55
2019-02-22T11:01:56.789Z,1032.53
2019-02-22T11:02:56.810Z,1032.54
2019-02-22T11:03:56.729Z,1032.55
2019-02-22T11:04:56.759Z,1032.59
2019-02-22T11:05:56.728Z,1032.58
2019-02-22T11:06:56.681Z,1032.55
2019-02-22T11:07:56.683Z,1032.57
2019-02-22T11:08:56.748Z,1032.52
2019-02-22T11:09:56.751Z,1032.53
2019-02-22T11:10:56.725Z,1032.60
2019-02-22T11:11:56.724Z,1032.56
2019-02-22T11:12:56.629Z,1032.59
2019-02-22T11:13:56.596Z,1032.58
2019-02-22T11:14:56.707Z,1032.56
2019-02-22T11:15:56.666Z,1032.53
2019-02-22T11:16:56.614Z,1032.57
2019-02-22T11:17:56.614Z,1032.56
2019-02-22T11:18:56.622Z,1032.53
2019-02-22T11:19:56.632Z,1032.59
2019-02-22T11:20:56.545Z,1032.57
2019-02-22T11:21:56.517Z,1032.59
2019-02-22T11:22:56.525Z,1032.60
2019-02-22T11:23:56.483Z,1032.61
2019-02-22T11:24:56.515Z,1032.57
2019-02-22T11:25:56.524Z,1032.61
2019-02-22T11:26:56.520Z,1032.60
2019-02-22T11:27:56.458Z,1032.57
2019-02-22T11:28:56.494Z,1032.61
2019-02-22T11:29:56.453Z,1032.52
2019-02-22T11:30:56.438Z,1032.55
2019-02-22T11:31:56.505Z,1032.52
2019-02-22T11:32:56.392Z,1032.52
2019-02-22T11:33:56.438Z,1032.58
2019-02-22T11:34:56.375Z,1032.59
2019-02-22T11:35:56.398Z,1032.59
2019-02-22T11:36:56.413Z,1032.59
2019-02-22T11:37:56.369Z,1032.62
2019-02-22T11:38:56.549Z,1032.57
2019-02-22T11:39:56.567Z,1032.61
2019-02-22T11:40:56.404Z,1032.59
2019-02-22T11:41:56.338Z,1032.60
2019-02-22T11:42:56.320Z,1032.55
2019-02-22T11:43:56.279Z,1032.62
2019-02-22T11:44:56.352Z,1032.58
2019-02-22T11:45:56.277Z,1032.65
2019-02-22T11:46:56.300Z,1032.65
2019-02-22T11:47:56.227Z,1032.62
2019-02-22T11:48:56.247Z,1032.62
2019-02-22T11:49:56.271Z,1032.61
2019-02-22T11:50:56.337Z,1032.60
2019-02-22T11:51:56.234Z,1032.61
2019-02-22T11:52:56.416Z,1032.65
2019-02-22T11:53:56.185Z,1032.61
2019-02-22T11:54:56.193Z,1032.62
2019-02-22T11:55:56.164Z,1032.59
2019-02-22T11:56:56.403Z,1032.58
2019-02-22T11:57:56.163Z,1032.60
2019-02-22T11:58:56.244Z,1032.58
2019-02-22T11:59:56.141Z,1032.64
2019-02-22T12:00:56.117Z,1032.58
2019-02-22T12:01:56.177Z,1032.55
2019-02-22T12:02:56.179Z,1032.61
2019-02-22T12:03:56.110Z,1032.59
2019-02-22T12:04:56.060Z,1032.61